KJST/JST METAR and TAF weather

Enter ICAO airport designator
Station Type Date Time Source
KJST METAR 2024/04/18 07:54 UTC NOAA

KJST 180754Z AUTO 27008KT 10SM FEW042 OVC055 13/11 A2992 RMK AO2 SLP125 T01280111


Station Type Date Time Source
KJST Decoded METAR 2024/04/18 07:54 UTC NOAA

JOHNSTOWN-CAMBRIA CO AIRPORT , PA, United States (KJST) 40-19N 078-50W 694M
Apr 18, 2024 - 03:54 AM EDT / 2024.04.18 0754 UTC
Wind: from the W (270 degrees) at 9 MPH (8 KT):0
Visibility: 10 mile(s):0
Sky conditions: overcast
Temperature: 55.0 F (12.8 C)
Dew Point: 52.0 F (11.1 C)
Relative Humidity: 89%
Pressure (altimeter): 29.92 in. Hg (1013 hPa)
ob: KJST 180754Z AUTO 27008KT 10SM FEW042 OVC055 13/11 A2992 RMK AO2 SLP125 T01280111
cycle: 8

Station Type Date Time Source
KJST TAF 2024/04/18 06:36 UTC NOAA